Time;durP1;ratioP1;P1;durP2;ratioP2;P2;SDS_P1;SDS_P2;PMS_P1;PMS_P2;Temp;Humidity;BMP_temperature;BMP_pressure;BME280_temperature;BME280_humidity;BME280_pressure;Samples;Min_cycle;Max_cycle;Signal;HPM_P1;HPM_P2
2023/04/21 00:01:59;;;;;;;1999.90;999.90;;;4.90;99.90;;;;;;5076527;28;20029;-72
2023/04/21 00:04:25;;;;;;;1999.90;999.90;;;4.90;99.90;;;;;;5075934;28;20068;-72
2023/04/21 00:06:51;;;;;;;1999.90;999.90;;;4.90;99.90;;;;;;5076424;28;20109;-72
2023/04/21 00:09:17;;;;;;;1999.90;999.90;;;4.90;99.90;;;;;;5076479;28;20570;-73
2023/04/21 00:11:43;;;;;;;1999.90;999.90;;;4.90;99.90;;;;;;5076415;28;20115;-72
2023/04/21 00:14:08;;;;;;;1999.90;999.90;;;4.80;99.90;;;;;;5075696;28;20116;-72
2023/04/21 00:16:34;;;;;;;1999.90;999.90;;;4.80;99.90;;;;;;5076347;28;20029;-72
2023/04/21 00:19:01;;;;;;;1999.90;999.90;;;4.80;99.90;;;;;;5058310;28;20044;-72
2023/04/21 00:21:26;;;;;;;1999.90;999.90;;;4.80;99.90;;;;;;5076909;28;20025;-72
2023/04/21 00:23:52;;;;;;;1999.90;999.90;;;4.70;99.90;;;;;;5076093;28;20048;-73
2023/04/21 00:26:19;;;;;;;1999.90;999.90;;;4.60;99.90;;;;;;5075788;28;20053;-72
2023/04/21 00:28:45;;;;;;;1999.90;999.90;;;4.60;99.90;;;;;;5075983;28;20040;-73
2023/04/21 00:31:10;;;;;;;1999.90;999.90;;;4.60;99.90;;;;;;5076187;28;20044;-72
2023/04/21 00:33:36;;;;;;;1999.90;999.90;;;4.60;99.90;;;;;;5075824;28;20406;-72
2023/04/21 00:36:01;;;;;;;1999.90;999.90;;;4.70;99.90;;;;;;5075660;28;20045;-72
2023/04/21 00:38:27;;;;;;;1999.90;999.90;;;4.60;99.90;;;;;;5076194;28;20037;-72
2023/04/21 00:40:52;;;;;;;1999.90;999.90;;;4.60;99.90;;;;;;5075889;28;20053;-72
2023/04/21 00:43:18;;;;;;;1999.90;999.90;;;4.60;99.90;;;;;;5075741;28;20402;-72
2023/04/21 00:45:46;;;;;;;1999.90;999.90;;;4.70;99.90;;;;;;5056977;28;20033;-72
2023/04/21 00:48:12;;;;;;;1999.90;999.90;;;4.70;99.90;;;;;;5057331;28;20040;-73
2023/04/21 00:50:37;;;;;;;1999.90;999.90;;;4.70;99.90;;;;;;5075613;28;20029;-72
2023/04/21 00:53:03;;;;;;;1999.90;999.90;;;4.70;99.90;;;;;;5075634;28;20045;-72
2023/04/21 00:55:30;;;;;;;1999.90;999.90;;;4.60;99.90;;;;;;5075211;28;20095;-73
2023/04/21 00:57:56;;;;;;;1999.90;999.90;;;4.60;99.90;;;;;;5075748;28;20064;-72
2023/04/21 01:00:22;;;;;;;1999.90;999.90;;;4.60;99.90;;;;;;5075640;28;20060;-72
2023/04/21 01:02:48;;;;;;;1999.90;999.90;;;4.60;99.90;;;;;;5057336;28;20549;-72
2023/04/21 01:05:15;;;;;;;1999.90;999.90;;;4.60;99.90;;;;;;5074779;28;20033;-73
2023/04/21 01:07:41;;;;;;;1999.90;999.90;;;4.50;99.90;;;;;;5075334;28;20047;-72
2023/04/21 01:10:07;;;;;;;1999.90;999.90;;;4.50;99.90;;;;;;5075632;28;20558;-72
2023/04/21 01:12:34;;;;;;;1999.90;999.90;;;4.50;99.90;;;;;;5057051;28;20116;-73
2023/04/21 01:15:00;;;;;;;1999.90;999.90;;;4.50;99.90;;;;;;5074835;28;20049;-72
2023/04/21 01:17:25;;;;;;;1999.90;999.90;;;4.50;99.90;;;;;;5075405;28;20064;-72
2023/04/21 01:19:55;;;;;;;1999.90;999.90;;;4.60;99.90;;;;;;5075022;28;20025;-72
2023/04/21 01:22:20;;;;;;;1999.90;999.90;;;4.60;99.90;;;;;;5075123;28;20033;-72
2023/04/21 01:24:47;;;;;;;1999.90;999.90;;;4.60;99.90;;;;;;5074035;28;20041;-72
2023/04/21 01:27:14;;;;;;;1999.90;999.90;;;4.50;99.90;;;;;;5075114;28;20041;-73
2023/04/21 01:29:41;;;;;;;1999.90;999.90;;;4.50;99.90;;;;;;5075295;28;20036;-73
2023/04/21 01:32:09;;;;;;;1999.90;999.90;;;4.50;99.90;;;;;;5075286;28;20045;-72
2023/04/21 01:34:35;;;;;;;1999.90;999.90;;;4.50;99.90;;;;;;5074525;28;20029;-72
2023/04/21 01:37:00;;;;;;;1999.90;999.90;;;4.40;99.90;;;;;;5075317;28;20033;-72
2023/04/21 01:39:26;;;;;;;1999.90;999.90;;;4.50;99.90;;;;;;5075037;28;20025;-73
2023/04/21 01:41:54;;;;;;;1999.90;999.90;;;4.50;99.90;;;;;;5074909;28;20040;-72
2023/04/21 01:44:20;;;;;;;1999.90;999.90;;;4.60;99.90;;;;;;5074415;28;20116;-72
2023/04/21 01:46:45;;;;;;;1999.90;999.90;;;4.60;99.90;;;;;;5075047;28;20041;-72
2023/04/21 01:49:11;;;;;;;1999.90;999.90;;;4.60;99.90;;;;;;5074700;28;20124;-73
2023/04/21 01:51:36;;;;;;;1999.90;999.90;;;4.60;99.90;;;;;;5074651;28;20495;-72
2023/04/21 01:54:02;;;;;;;1999.90;999.90;;;4.60;99.90;;;;;;5074629;28;20033;-72
2023/04/21 01:56:27;;;;;;;1999.90;999.90;;;4.50;99.90;;;;;;5073349;28;20040;-72
2023/04/21 01:58:53;;;;;;;1999.90;999.90;;;4.50;99.90;;;;;;5074579;28;20040;-72
2023/04/21 02:01:18;;;;;;;1999.90;999.90;;;4.50;99.90;;;;;;5056383;28;20032;-72
2023/04/21 02:03:44;;;;;;;1999.90;999.90;;;4.40;99.90;;;;;;5074644;28;20068;-72
2023/04/21 02:06:10;;;;;;;1999.90;999.90;;;4.30;99.90;;;;;;5074299;28;20025;-72
2023/04/21 02:08:35;;;;;;;1999.90;999.90;;;4.30;99.90;;;;;;5074664;28;20041;-73
2023/04/21 02:11:01;;;;;;;1999.90;999.90;;;4.20;99.90;;;;;;5056306;28;20068;-72
2023/04/21 02:13:27;;;;;;;1999.90;999.90;;;4.30;99.90;;;;;;5074571;28;20079;-72
2023/04/21 02:15:52;;;;;;;1999.90;999.90;;;4.20;99.90;;;;;;5074179;28;20040;-73
2023/04/21 02:18:19;;;;;;;1999.90;999.90;;;4.10;99.90;;;;;;5074498;28;20091;-72
2023/04/21 02:20:44;;;;;;;1999.90;999.90;;;4.10;99.90;;;;;;5074459;28;20090;-72
2023/04/21 02:23:10;;;;;;;1999.90;999.90;;;4.10;99.90;;;;;;5074687;28;20037;-72
2023/04/21 02:25:35;;;;;;;1999.90;999.90;;;4.00;99.90;;;;;;5073568;28;20048;-72
2023/04/21 02:28:01;;;;;;;1999.90;999.90;;;3.90;99.90;;;;;;5076358;28;20048;-72
2023/04/21 02:30:27;;;;;;;1999.90;999.90;;;3.90;99.90;;;;;;5075873;28;20055;-72
2023/04/21 02:32:52;;;;;;;1999.90;999.90;;;3.90;99.90;;;;;;5074381;28;20198;-72
2023/04/21 02:35:18;;;;;;;1999.90;999.90;;;4.00;99.90;;;;;;5074826;28;20083;-73
2023/04/21 02:37:43;;;;;;;1999.90;999.90;;;3.90;99.90;;;;;;5078037;28;20506;-72
2023/04/21 02:40:09;;;;;;;1999.90;999.90;;;3.90;99.90;;;;;;5078082;28;20402;-72
2023/04/21 02:42:35;;;;;;;1999.90;999.90;;;3.90;99.90;;;;;;5077747;28;20478;-72
2023/04/21 02:45:00;;;;;;;1999.90;999.90;;;3.90;99.90;;;;;;5077482;28;20037;-73
2023/04/21 02:47:26;;;;;;;1999.90;999.90;;;4.00;99.90;;;;;;5077742;28;20041;-72
2023/04/21 02:49:51;;;;;;;1999.90;999.90;;;4.00;99.90;;;;;;5078496;28;20033;-72
2023/04/21 02:52:17;;;;;;;1999.90;999.90;;;4.00;99.90;;;;;;5077888;28;20044;-72
2023/04/21 02:54:42;;;;;;;1999.90;999.90;;;4.00;99.90;;;;;;5077524;28;20033;-72
2023/04/21 02:57:08;;;;;;;1999.90;999.90;;;3.80;99.90;;;;;;5077537;28;20390;-72
2023/04/21 02:59:33;;;;;;;1999.90;999.90;;;3.70;99.90;;;;;;5077788;28;20060;-73
2023/04/21 03:01:59;;;;;;;1999.90;999.90;;;3.60;99.90;;;;;;5077684;28;20079;-72
2023/04/21 03:04:24;;;;;;;1999.90;999.90;;;3.60;99.90;;;;;;5077003;28;20128;-72
2023/04/21 03:06:52;;;;;;;1999.90;999.90;;;3.60;99.90;;;;;;5059497;28;20069;-73
2023/04/21 03:09:18;;;;;;;1999.90;999.90;;;3.70;99.90;;;;;;5059159;28;20041;-72
2023/04/21 03:11:43;;;;;;;1999.90;999.90;;;3.80;99.90;;;;;;5058976;28;20119;-72
2023/04/21 03:14:09;;;;;;;1999.90;999.90;;;3.90;99.90;;;;;;5076974;28;20395;-73
2023/04/21 03:16:34;;;;;;;1999.90;999.90;;;3.90;99.90;;;;;;5077491;28;20052;-73
2023/04/21 03:19:00;;;;;;;1999.90;999.90;;;3.90;99.90;;;;;;5077301;28;20044;-72
2023/04/21 03:21:25;;;;;;;1999.90;999.90;;;3.90;99.90;;;;;;5077451;28;20501;-73
2023/04/21 03:23:51;;;;;;;1999.90;999.90;;;3.90;99.90;;;;;;5077286;28;20091;-73
2023/04/21 03:26:17;;;;;;;1999.90;999.90;;;4.00;99.90;;;;;;5076671;28;20032;-73
2023/04/21 03:28:42;;;;;;;1999.90;999.90;;;4.00;99.90;;;;;;5077037;28;20040;-72
2023/04/21 03:31:08;;;;;;;1999.90;999.90;;;3.90;99.90;;;;;;5076829;28;20025;-72
2023/04/21 03:33:33;;;;;;;1999.90;999.90;;;3.80;99.90;;;;;;5077113;28;20041;-72
2023/04/21 03:35:59;;;;;;;1999.90;999.90;;;3.80;99.90;;;;;;5076788;28;20087;-72
2023/04/21 03:38:27;;;;;;;1999.90;999.90;;;3.80;99.90;;;;;;5077150;28;20506;-72
2023/04/21 03:40:52;;;;;;;1999.90;999.90;;;3.90;99.90;;;;;;5058325;28;20064;-73
2023/04/21 03:43:18;;;;;;;1999.90;999.90;;;3.90;99.90;;;;;;5077022;28;20057;-72
2023/04/21 03:45:43;;;;;;;1999.90;999.90;;;3.90;99.90;;;;;;5075999;28;20032;-72
2023/04/21 03:48:09;;;;;;;1999.90;999.90;;;4.00;99.90;;;;;;5077215;28;20048;-72
2023/04/21 03:50:35;;;;;;;1999.90;999.90;;;4.10;99.90;;;;;;5076712;28;20100;-72
2023/04/21 03:53:00;;;;;;;1999.90;999.90;;;4.00;99.90;;;;;;5058503;28;20033;-73
2023/04/21 03:55:26;;;;;;;1999.90;999.90;;;4.00;99.90;;;;;;5075926;28;20040;-73
2023/04/21 03:57:51;;;;;;;1999.90;999.90;;;4.00;99.90;;;;;;5076886;28;20037;-72
2023/04/21 04:00:17;;;;;;;1999.90;999.90;;;4.00;99.90;;;;;;5076712;28;20028;-73
2023/04/21 04:02:42;;;;;;;1999.90;999.90;;;3.90;99.90;;;;;;5076892;28;20479;-73
2023/04/21 04:05:08;;;;;;;1999.90;999.90;;;3.80;99.90;;;;;;5076276;28;20033;-72
2023/04/21 04:07:34;;;;;;;1999.90;999.90;;;3.80;99.90;;;;;;5076548;28;20075;-73
2023/04/21 04:09:59;;;;;;;1999.90;999.90;;;3.80;99.90;;;;;;5076401;28;20073;-73
2023/04/21 04:12:25;;;;;;;1999.90;999.90;;;3.60;99.90;;;;;;5058101;28;20470;-73
2023/04/21 04:14:50;;;;;;;1999.90;999.90;;;3.70;99.90;;;;;;5075857;28;20037;-72
2023/04/21 04:17:16;;;;;;;1999.90;999.90;;;3.70;99.90;;;;;;5076578;28;20375;-73
2023/04/21 04:19:42;;;;;;;1999.90;999.90;;;3.60;99.90;;;;;;5076371;28;20552;-72
2023/04/21 04:22:07;;;;;;;1999.90;999.90;;;3.70;99.90;;;;;;5057978;28;20043;-72
2023/04/21 04:24:34;;;;;;;1999.90;999.90;;;3.70;99.90;;;;;;5075161;28;20107;-72
2023/04/21 04:27:01;;;;;;;1999.90;999.90;;;3.60;99.90;;;;;;5124775;22;20044;-81
2023/04/21 04:29:27;;;;;;;1999.90;999.90;;;3.70;99.90;;;;;;5101185;28;20029;-82
2023/04/21 04:31:53;;;;;;;1999.90;999.90;;;3.70;99.90;;;;;;5102276;28;20035;-81
2023/04/21 04:34:19;;;;;;;1999.90;999.90;;;3.70;99.90;;;;;;5102413;28;20481;-81
2023/04/21 04:36:46;;;;;;;1999.90;999.90;;;3.70;99.90;;;;;;5101783;28;20032;-81
2023/04/21 04:39:12;;;;;;;1999.90;999.90;;;3.70;99.90;;;;;;5102218;28;20501;-81
2023/04/21 04:41:38;;;;;;;1999.90;999.90;;;3.80;99.90;;;;;;5120460;28;20028;-81
2023/04/21 04:44:05;;;;;;;1999.90;999.90;;;3.80;99.90;;;;;;5102330;28;20406;-82
2023/04/21 04:46:30;;;;;;;1999.90;999.90;;;3.80;99.90;;;;;;5103096;28;20055;-81
2023/04/21 04:48:56;;;;;;;1999.90;999.90;;;3.80;99.90;;;;;;5122874;28;20068;-82
2023/04/21 04:51:22;;;;;;;1999.90;999.90;;;3.90;99.90;;;;;;5120399;28;20051;-82
2023/04/21 04:53:48;;;;;;;1999.90;999.90;;;3.90;99.90;;;;;;5099833;28;20035;-81
2023/04/21 04:56:13;;;;;;;1999.90;999.90;;;4.00;99.90;;;;;;5098913;28;20036;-82
2023/04/21 04:58:39;;;;;;;1999.90;999.90;;;4.10;99.90;;;;;;5098518;28;20043;-81
2023/04/21 05:01:15;;;;;;;1999.90;999.90;;;4.20;99.90;;;;;;5099178;28;20489;-82
2023/04/21 05:03:41;;;;;;;1999.90;999.90;;;4.40;99.90;;;;;;5099320;28;20035;-82
2023/04/21 05:06:07;;;;;;;1999.90;999.90;;;4.40;99.90;;;;;;5099549;28;20119;-82
2023/04/21 05:08:32;;;;;;;1999.90;999.90;;;4.50;99.90;;;;;;5117837;28;20058;-81
2023/04/21 05:10:58;;;;;;;1999.90;999.90;;;4.50;99.90;;;;;;5102711;28;20028;-80
2023/04/21 05:13:23;;;;;;;1999.90;999.90;;;4.70;99.90;;;;;;5121633;28;20062;-80
2023/04/21 05:15:49;;;;;;;1999.90;999.90;;;4.50;99.90;;;;;;5100287;28;20037;-80
2023/04/21 05:18:14;;;;;;;1999.90;999.90;;;4.60;99.90;;;;;;5100121;28;20040;-81
2023/04/21 05:20:41;;;;;;;1999.90;999.90;;;4.60;99.90;;;;;;5118889;28;20035;-81
2023/04/21 05:23:07;;;;;;;1999.90;999.90;;;4.70;99.90;;;;;;5100678;28;20541;-81
2023/04/21 05:25:32;;;;;;;1999.90;999.90;;;4.90;99.90;;;;;;5119524;28;20124;-82
2023/04/21 05:27:58;;;;;;;1999.90;999.90;;;5.10;99.90;;;;;;5101807;28;20048;-82
2023/04/21 05:30:24;;;;;;;1999.90;999.90;;;5.20;99.90;;;;;;5101572;28;20044;-82
2023/04/21 05:32:49;;;;;;;1999.90;999.90;;;5.30;99.90;;;;;;5101865;28;20028;-82
2023/04/21 05:35:15;;;;;;;1999.90;999.90;;;5.40;99.90;;;;;;5100220;28;20101;-82
2023/04/21 05:37:40;;;;;;;1999.90;999.90;;;5.50;99.90;;;;;;5098831;28;20044;-81
2023/04/21 05:40:06;;;;;;;1999.90;999.90;;;5.50;99.90;;;;;;5098179;28;20035;-82
2023/04/21 05:42:32;;;;;;;1999.90;999.90;;;5.50;99.90;;;;;;5101030;28;20201;-81
2023/04/21 05:44:57;;;;;;;1999.90;999.90;;;5.50;99.90;;;;;;5100170;28;20050;-82
2023/04/21 05:47:23;;;;;;;1999.90;999.90;;;5.50;99.90;;;;;;5122179;28;20047;-82
2023/04/21 05:49:52;;;;;;;1999.90;999.90;;;5.70;99.90;;;;;;5102753;28;20034;-82
2023/04/21 05:52:20;;;;;;;1999.90;999.90;;;5.60;99.90;;;;;;5121399;28;20028;-82
2023/04/21 05:54:45;;;;;;;1999.90;999.90;;;5.60;99.90;;;;;;5120747;28;20054;-84
2023/04/21 05:57:11;;;;;;;1999.90;999.90;;;5.70;99.90;;;;;;5099317;28;20031;-83
2023/04/21 05:59:37;;;;;;;1999.90;999.90;;;5.70;99.90;;;;;;5098219;28;20039;-83
2023/04/21 06:02:02;;;;;;;1999.90;999.90;;;5.80;99.90;;;;;;5116387;28;20043;-82
2023/04/21 06:04:28;;;;;;;1999.90;999.90;;;5.90;99.90;;;;;;5096075;28;20047;-84
2023/04/21 06:06:53;;;;;;;1999.90;999.90;;;6.00;99.90;;;;;;5101740;28;20439;-85
2023/04/21 06:09:19;;;;;;;1999.90;999.90;;;6.00;99.90;;;;;;5097757;28;20043;-80
2023/04/21 06:11:45;;;;;;;1999.90;999.90;;;6.20;99.90;;;;;;5112611;28;20539;-80
2023/04/21 06:14:10;;;;;;;1999.90;999.90;;;6.30;99.90;;;;;;5096622;28;20043;-80
2023/04/21 06:16:36;;;;;;;1999.90;999.90;;;6.40;99.90;;;;;;5111410;28;20038;-81
2023/04/21 06:19:01;;;;;;;1999.90;999.90;;;6.60;99.90;;;;;;5098602;28;20043;-78
2023/04/21 06:21:27;;;;;;;1999.90;999.90;;;6.70;99.90;;;;;;5097168;28;20036;-84
2023/04/21 06:23:52;;;;;;;1999.90;999.90;;;6.80;99.90;;;;;;5077478;28;20056;-83
2023/04/21 06:26:18;;;;;;;1999.90;999.90;;;6.70;99.90;;;;;;5076949;28;20044;-83
2023/04/21 06:28:44;;;;;;;1999.90;999.90;;;6.60;99.90;;;;;;5077240;28;20036;-81
2023/04/21 06:31:14;;;;;;;1999.90;999.90;;;6.70;99.90;;;;;;5096495;28;20033;-84
2023/04/21 06:33:40;;;;;;;1999.90;999.90;;;6.80;99.90;;;;;;5077570;28;20060;-81
2023/04/21 06:36:06;;;;;;;1999.90;999.90;;;7.00;99.90;;;;;;5108880;28;20500;-82
2023/04/21 06:38:31;;;;;;;1999.90;999.90;;;7.10;99.90;;;;;;5116027;28;20507;-81
2023/04/21 06:40:57;;;;;;;1999.90;999.90;;;7.00;99.90;;;;;;5098489;28;20034;-82
2023/04/21 06:43:23;;;;;;;1999.90;999.90;;;7.10;99.90;;;;;;5097717;28;20043;-80
2023/04/21 06:45:48;;;;;;;1999.90;999.90;;;7.30;99.90;;;;;;5107691;28;20052;-80
2023/04/21 06:48:14;;;;;;;1999.90;999.90;;;7.50;99.90;;;;;;5095520;28;20036;-81
2023/04/21 06:50:39;;;;;;;1999.90;999.90;;;7.50;99.90;;;;;;5076961;28;20036;-79
2023/04/21 06:53:05;;;;;;;1999.90;999.90;;;7.50;99.90;;;;;;5095094;28;20043;-78
2023/04/21 06:55:31;;;;;;;1999.90;999.90;;;7.30;99.90;;;;;;5094350;28;20024;-77
2023/04/21 06:57:56;;;;;;;1999.90;999.90;;;7.30;99.90;;;;;;5076705;28;20854;-79
2023/04/21 07:00:22;;;;;;;1999.90;999.90;;;7.40;99.90;;;;;;5078126;28;20482;-79
2023/04/21 07:02:48;;;;;;;1999.90;999.90;;;7.60;99.90;;;;;;5094977;28;20158;-77
2023/04/21 07:05:13;;;;;;;1999.90;999.90;;;7.70;99.90;;;;;;5095106;28;20474;-79
2023/04/21 07:07:39;;;;;;;1999.90;999.90;;;7.90;99.90;;;;;;5077343;28;20561;-78
2023/04/21 07:10:06;;;;;;;1999.90;999.90;;;7.60;99.90;;;;;;5097629;28;20028;-78
2023/04/21 07:12:31;;;;;;;1999.90;999.90;;;7.60;99.90;;;;;;5089703;28;20402;-79
2023/04/21 07:14:57;;;;;;;1999.90;999.90;;;7.70;99.90;;;;;;5077170;28;20033;-80
2023/04/21 07:17:22;;;;;;;1999.90;999.90;;;7.80;99.90;;;;;;5077384;28;20083;-77
2023/04/21 07:19:48;;;;;;;1999.90;999.90;;;7.90;99.90;;;;;;5077305;28;20086;-77
2023/04/21 07:22:13;;;;;;;1999.90;999.90;;;8.00;99.90;;;;;;5117321;27;20047;-79
2023/04/21 07:24:39;;;;;;;1999.90;999.90;;;8.10;99.90;;;;;;5118190;28;20378;-78
2023/04/21 07:27:04;;;;;;;1999.90;999.90;;;8.30;99.90;;;;;;5118122;28;20042;-78
2023/04/21 07:29:30;;;;;;;1999.90;999.90;;;8.50;99.90;;;;;;5118567;28;20039;-78
2023/04/21 07:31:57;;;;;;;1999.90;999.90;;;8.70;99.90;;;;;;5118835;28;20028;-80
2023/04/21 07:34:23;;;;;;;1999.90;999.90;;;8.80;99.90;;;;;;5089697;28;20852;-78
2023/04/21 07:36:50;;;;;;;1999.90;999.90;;;8.80;99.90;;;;;;5111220;28;20032;-80
2023/04/21 07:39:15;;;;;;;1999.90;999.90;;;9.00;99.90;;;;;;5116755;28;20565;-80
2023/04/21 07:41:41;;;;;;;1999.90;999.90;;;9.20;99.90;;;;;;5080631;28;20028;-79
2023/04/21 07:44:06;;;;;;;1999.90;999.90;;;9.20;99.90;;;;;;5100835;28;20473;-80
2023/04/21 07:46:32;;;;;;;1999.90;999.90;;;9.40;99.90;;;;;;5101837;28;20032;-80
2023/04/21 07:48:58;;;;;;;1999.90;999.90;;;9.50;99.90;;;;;;5120508;28;20040;-80
2023/04/21 07:51:24;;;;;;;1999.90;999.90;;;9.40;99.90;;;;;;5102333;28;20036;-79
2023/04/21 07:53:50;;;;;;;1999.90;999.90;;;9.40;99.90;;;;;;5100476;28;20040;-79
2023/04/21 07:56:16;;;;;;;1999.90;999.90;;;9.50;99.90;;;;;;5078416;28;20039;-78
2023/04/21 07:58:41;;;;;;;1999.90;999.90;;;9.90;99.90;;;;;;5078846;28;20043;-78
2023/04/21 08:01:07;;;;;;;1999.90;999.90;;;9.90;99.90;;;;;;5078773;28;20508;-77
2023/04/21 08:03:33;;;;;;;1999.90;999.90;;;10.00;99.90;;;;;;5078696;28;20042;-78
2023/04/21 08:05:58;;;;;;;1999.90;999.90;;;10.00;99.90;;;;;;5096948;28;20555;-78
2023/04/21 08:08:24;;;;;;;1999.90;999.90;;;10.20;99.90;;;;;;5090481;28;20032;-76
2023/04/21 08:10:49;;;;;;;1999.90;999.90;;;10.20;99.90;;;;;;5116523;28;20028;-78
2023/04/21 08:13:15;;;;;;;1999.90;999.90;;;10.10;99.90;;;;;;5117589;28;20388;-78
2023/04/21 08:15:40;;;;;;;1999.90;999.90;;;10.20;99.90;;;;;;5098425;28;20020;-78
2023/04/21 08:18:07;;;;;;;1999.90;999.90;;;10.40;99.90;;;;;;5099644;28;20028;-78
2023/04/21 08:20:33;;;;;;;1999.90;999.90;;;10.60;99.90;;;;;;5098660;28;20037;-78
2023/04/21 08:22:59;;;;;;;1999.90;999.90;;;10.50;99.90;;;;;;5117430;28;20048;-78
2023/04/21 08:25:24;;;;;;;1999.90;999.90;;;10.30;99.90;;;;;;5098843;28;20095;-79
2023/04/21 08:27:50;;;;;;;1999.90;999.90;;;10.30;99.90;;;;;;5110406;28;20040;-78
2023/04/21 08:30:16;;;;;;;1999.90;999.90;;;10.20;99.90;;;;;;5100340;28;20032;-78
2023/04/21 08:32:42;;;;;;;1999.90;999.90;;;10.10;99.90;;;;;;5120662;28;20032;-78
2023/04/21 08:35:08;;;;;;;1999.90;999.90;;;10.20;99.90;;;;;;5108913;28;20034;-78
2023/04/21 08:37:36;;;;;;;1999.90;999.90;;;10.60;99.90;;;;;;5104091;28;20089;-78
2023/04/21 08:40:05;;;;;;;1999.90;999.90;;;10.90;99.90;;;;;;5082581;28;20517;-78
2023/04/21 08:42:32;;;;;;;1999.90;999.90;;;10.90;99.90;;;;;;5096509;28;20425;-78
2023/04/21 08:44:58;;;;;;;1999.90;999.90;;;11.00;99.90;;;;;;5096073;28;20604;-78
2023/04/21 08:47:26;;;;;;;1999.90;999.90;;;11.10;99.90;;;;;;5097116;28;20091;-78
2023/04/21 08:49:53;;;;;;;1999.90;999.90;;;11.30;99.90;;;;;;5115406;28;20042;-79
2023/04/21 08:52:19;;;;;;;1999.90;999.90;;;11.50;99.90;;;;;;5118536;28;20028;-78
2023/04/21 08:54:54;;;;;;;1999.90;999.90;;;11.80;99.90;;;;;;5099148;28;20536;-81
2023/04/21 08:57:23;;;;;;;1999.90;999.90;;;12.00;99.90;;;;;;5100622;28;20043;-79
2023/04/21 08:59:49;;;;;;;1999.90;999.90;;;11.90;99.90;;;;;;5117147;28;20032;-78
2023/04/21 09:02:17;;;;;;;1999.90;999.90;;;11.60;99.90;;;;;;5097615;28;20037;-78
2023/04/21 09:04:47;;;;;;;1999.90;999.90;;;11.50;99.90;;;;;;5106414;28;20028;-78
2023/04/21 09:07:41;;;;;;;1999.90;999.90;;;11.80;99.90;;;;;;5118118;28;20101;-78
2023/04/21 09:10:07;;;;;;;1999.90;999.90;;;12.10;99.90;;;;;;5101134;28;20131;-79
2023/04/21 09:12:32;;;;;;;1999.90;999.90;;;12.10;99.90;;;;;;5097879;28;20481;-79
2023/04/21 09:14:59;;;;;;;1999.90;999.90;;;12.50;99.90;;;;;;5105570;28;20040;-80
2023/04/21 09:17:35;;;;;;;1999.90;999.90;;;12.70;99.90;;;;;;5097389;28;20025;-78
2023/04/21 09:20:21;;;;;;;1999.90;999.90;;;12.60;99.90;;;;;;5109754;28;20039;-78
2023/04/21 09:22:50;;;;;;;1999.90;999.90;;;12.80;99.90;;;;;;5118561;28;20397;-79
2023/04/21 09:25:18;;;;;;;1999.90;999.90;;;12.90;99.90;;;;;;5116772;28;20036;-79
2023/04/21 09:27:45;;;;;;;1999.90;999.90;;;12.90;99.90;;;;;;5098840;28;20056;-78
2023/04/21 09:30:11;;;;;;;1999.90;999.90;;;12.90;99.90;;;;;;5101596;28;20067;-79
2023/04/21 09:32:38;;;;;;;1999.90;999.90;;;12.90;99.90;;;;;;5108654;28;20101;-79
2023/04/21 09:35:08;;;;;;;1999.90;999.90;;;13.00;99.90;;;;;;5117194;28;20024;-78
2023/04/21 09:37:35;;;;;;;1999.90;999.90;;;13.20;99.90;;;;;;5091859;28;20028;-78
2023/04/21 09:40:00;;;;;;;1999.90;999.90;;;13.80;99.90;;;;;;5101620;28;20083;-78
2023/04/21 09:42:30;;;;;;;1999.90;999.90;;;14.00;99.90;;;;;;5077180;28;20391;-78
2023/04/21 09:44:56;;;;;;;1999.90;999.90;;;14.30;99.90;;;;;;5092123;28;20024;-79
2023/04/21 09:47:22;;;;;;;1999.90;999.90;;;13.70;99.90;;;;;;5097541;28;20032;-77
2023/04/21 09:49:51;;;;;;;1999.90;999.90;;;13.60;99.90;;;;;;5097489;28;20075;-78
2023/04/21 09:52:19;;;;;;;1999.90;999.90;;;13.60;99.90;;;;;;5097583;28;20169;-77
2023/04/21 09:54:50;;;;;;;1999.90;999.90;;;13.60;99.90;;;;;;5115649;28;20570;-77
2023/04/21 09:57:23;;;;;;;1999.90;999.90;;;13.70;99.90;;;;;;5097508;28;20036;-77
2023/04/21 09:59:55;;;;;;;1999.90;999.90;;;13.70;99.90;;;;;;5097197;28;20028;-78
2023/04/21 10:02:25;;;;;;;1999.90;999.90;;;13.80;99.90;;;;;;5116062;28;20473;-78
2023/04/21 10:04:51;;;;;;;1999.90;999.90;;;13.90;99.90;;;;;;5097094;28;20040;-78
2023/04/21 10:07:16;;;;;;;1999.90;999.90;;;13.80;99.90;;;;;;5097220;28;20032;-78
2023/04/21 10:09:54;;;;;;;1999.90;999.90;;;14.00;99.90;;;;;;5086137;28;20112;-78
2023/04/21 10:12:21;;;;;;;1999.90;999.90;;;14.10;99.90;;;;;;5076835;28;20042;-78
2023/04/21 10:14:52;;;;;;;1999.90;999.90;;;14.30;99.90;;;;;;5103566;28;20056;-78
2023/04/21 10:17:18;;;;;;;1999.90;999.90;;;14.40;99.90;;;;;;5090652;28;20552;-78
2023/04/21 10:19:52;;;;;;;1999.90;999.90;;;14.30;99.90;;;;;;5114893;28;20060;-80
2023/04/21 10:22:31;;;;;;;1999.90;999.90;;;14.20;99.90;;;;;;5115409;28;20048;-79
2023/04/21 10:24:59;;;;;;;1999.90;999.90;;;14.10;99.90;;;;;;5096718;28;20131;-79
2023/04/21 10:27:41;;;;;;;1999.90;999.90;;;14.00;99.90;;;;;;5096872;28;20031;-78
2023/04/21 10:30:21;;;;;;;1999.90;999.90;;;14.20;99.90;;;;;;5116401;28;20039;-80
2023/04/21 10:32:47;;;;;;;1999.90;999.90;;;14.40;99.90;;;;;;5079720;28;20036;-77
2023/04/21 10:35:18;;;;;;;1999.90;999.90;;;14.70;99.90;;;;;;5094750;28;20448;-78
2023/04/21 10:37:47;;;;;;;1999.90;999.90;;;15.10;99.90;;;;;;5102824;28;20564;-79
2023/04/21 10:40:38;;;;;;;1999.90;999.90;;;15.40;99.90;;;;;;5115058;28;20048;-78
2023/04/21 10:43:04;;;;;;;1999.90;999.90;;;15.30;99.90;;;;;;5083108;28;20087;-81
2023/04/21 10:45:31;;;;;;;1999.90;999.90;;;15.10;99.90;;;;;;5076397;28;20060;-79
2023/04/21 10:48:02;;;;;;;1999.90;999.90;;;15.00;99.90;;;;;;5076752;28;20044;-79
2023/04/21 10:50:30;;;;;;;1999.90;999.90;;;15.50;99.90;;;;;;5096188;28;20118;-79
2023/04/21 10:52:55;;;;;;;1999.90;999.90;;;15.70;99.90;;;;;;5076186;28;20032;-78
2023/04/21 10:55:24;;;;;;;1999.90;999.90;;;16.10;99.90;;;;;;5094139;28;20099;-80
2023/04/21 10:57:49;;;;;;;1999.90;999.90;;;16.10;99.90;;;;;;5097903;28;20121;-80
2023/04/21 11:00:18;;;;;;;1999.90;999.90;;;16.30;99.90;;;;;;5079647;28;20157;-78
2023/04/21 11:02:51;;;;;;;1999.90;999.90;;;16.30;99.90;;;;;;5083558;28;20162;-78
2023/04/21 11:05:17;;;;;;;1999.90;999.90;;;16.40;99.90;;;;;;5109043;28;20111;-79
2023/04/21 11:07:42;;;;;;;1999.90;999.90;;;16.60;99.90;;;;;;5098326;28;20179;-78
2023/04/21 11:10:10;;;;;;;1999.90;999.90;;;16.70;99.90;;;;;;5080842;28;20036;-79
2023/04/21 11:12:40;;;;;;;1999.90;999.90;;;16.70;99.90;;;;;;5096877;28;20032;-80
2023/04/21 11:15:08;;;;;;;1999.90;999.90;;;16.90;99.90;;;;;;5099807;28;20512;-79
2023/04/21 11:17:34;;;;;;;1999.90;999.90;;;16.80;99.90;;;;;;5112243;28;20068;-80
2023/04/21 11:20:03;;;;;;;1999.90;999.90;;;17.10;99.90;;;;;;5080506;28;21157;-80
2023/04/21 11:22:28;;;;;;;1999.90;999.90;;;17.10;99.90;;;;;;5080663;28;20815;-78
2023/04/21 11:24:55;;;;;;;1999.90;999.90;;;17.10;99.90;;;;;;5097553;28;20044;-80
2023/04/21 11:27:22;;;;;;;1999.90;999.90;;;16.80;99.90;;;;;;5080440;28;20516;-80
2023/04/21 11:29:49;;;;;;;1999.90;999.90;;;16.80;99.90;;;;;;5099440;28;20036;-80
2023/04/21 11:32:16;;;;;;;1999.90;999.90;;;16.90;99.90;;;;;;5088252;28;20063;-80
2023/04/21 11:34:41;;;;;;;1999.90;999.90;;;16.80;99.90;;;;;;5079398;28;20086;-80
2023/04/21 11:37:08;;;;;;;1999.90;999.90;;;17.00;99.90;;;;;;5082449;28;20054;-80
2023/04/21 11:39:34;;;;;;;1999.90;999.90;;;17.10;99.90;;;;;;5101911;28;20567;-82
2023/04/21 11:42:00;;;;;;;1999.90;999.90;;;17.20;99.90;;;;;;5100679;28;20116;-80
2023/04/21 11:44:35;;;;;;;1999.90;999.90;;;17.40;99.90;;;;;;5081485;28;20056;-84
2023/04/21 11:47:18;;;;;;;1999.90;999.90;;;17.90;99.90;;;;;;5080326;28;20101;-80
2023/04/21 11:49:50;;;;;;;1999.90;999.90;;;18.20;99.90;;;;;;5102290;28;20045;-80
2023/04/21 11:52:32;;;;;;;1999.90;999.90;;;18.60;99.90;;;;;;5083730;28;20029;-78
2023/04/21 11:55:03;;;;;;;1999.90;999.90;;;18.20;99.10;;;;;;5082764;28;20113;-80
2023/04/21 11:57:31;;;;;;;1999.90;999.90;;;18.40;99.40;;;;;;5103098;28;20035;-78
2023/04/21 12:00:01;;;;;;;1999.90;999.90;;;18.20;99.80;;;;;;5080965;28;20085;-80
2023/04/21 12:02:29;;;;;;;1999.90;999.90;;;18.30;99.70;;;;;;5095363;28;20028;-79
2023/04/21 12:04:58;;;;;;;1999.90;999.90;;;18.30;99.70;;;;;;5113984;28;20084;-80